createdAt,value
2023-06-18T00:00:10.092Z,45.45
2023-06-18T00:02:59.636Z,45.39
2023-06-18T00:05:27.767Z,45.64
2023-06-18T00:07:55.799Z,45.52
2023-06-18T00:10:23.978Z,45.49
2023-06-18T00:12:52.210Z,45.58
2023-06-18T00:15:20.401Z,45.51
2023-06-18T00:17:48.578Z,45.45
2023-06-18T00:20:17.539Z,45.23
2023-06-18T00:22:49.389Z,45.42
2023-06-18T00:25:17.853Z,45.39
2023-06-18T00:27:47.020Z,45.44
2023-06-18T00:30:15.426Z,45.39
2023-06-18T00:32:45.979Z,45.38
2023-06-18T00:35:15.925Z,45.27
2023-06-18T00:37:45.042Z,45.49
2023-06-18T00:40:13.766Z,45.35
2023-06-18T00:42:42.116Z,45.21
2023-06-18T00:45:11.102Z,45.27
2023-06-18T00:47:43.601Z,45.32
2023-06-18T00:50:15.485Z,45.19
2023-06-18T00:52:48.663Z,45.37
2023-06-18T00:55:22.166Z,45.21
2023-06-18T00:58:00.453Z,45.33
2023-06-18T01:00:29.922Z,45.49
2023-06-18T01:03:05.022Z,45.21
2023-06-18T01:05:34.809Z,45.38
2023-06-18T01:08:07.785Z,45.41
2023-06-18T01:10:40.822Z,45.34
2023-06-18T01:13:10.372Z,45.29
2023-06-18T01:15:39.756Z,45.28
2023-06-18T01:18:08.552Z,45.30
2023-06-18T01:20:42.363Z,45.21
2023-06-18T01:23:22.431Z,45.33
2023-06-18T01:25:52.191Z,45.46
2023-06-18T01:28:20.879Z,45.33
2023-06-18T01:30:49.348Z,45.28
2023-06-18T01:33:17.610Z,45.15
2023-06-18T01:35:45.695Z,45.39
2023-06-18T01:38:29.850Z,45.30
2023-06-18T01:41:02.616Z,45.17
2023-06-18T01:43:30.745Z,45.23
2023-06-18T01:46:06.393Z,45.16
2023-06-18T01:48:37.212Z,45.30
2023-06-18T01:51:06.016Z,45.22
2023-06-18T01:53:35.527Z,45.28
2023-06-18T01:56:03.951Z,45.12
2023-06-18T01:58:35.320Z,45.34
2023-06-18T02:01:04.196Z,45.34
2023-06-18T02:03:33.178Z,45.29
2023-06-18T02:06:02.545Z,45.17
2023-06-18T02:08:30.890Z,45.39
2023-06-18T02:10:59.890Z,45.23
2023-06-18T02:13:28.373Z,45.13
2023-06-18T02:15:57.064Z,45.22
2023-06-18T02:18:25.414Z,45.31
2023-06-18T02:20:53.466Z,45.32
2023-06-18T02:23:21.639Z,45.06
2023-06-18T02:25:52.209Z,45.26
2023-06-18T02:28:20.288Z,45.36
2023-06-18T02:30:49.169Z,45.25
2023-06-18T02:33:18.997Z,45.17
2023-06-18T02:35:47.115Z,45.28
2023-06-18T02:38:15.248Z,45.19
2023-06-18T02:40:43.298Z,45.26
2023-06-18T02:43:11.471Z,45.29
2023-06-18T02:45:39.607Z,45.40
2023-06-18T02:48:07.764Z,45.19
2023-06-18T02:50:35.943Z,45.31
2023-06-18T02:53:04.331Z,45.16
2023-06-18T02:55:33.009Z,45.28
2023-06-18T02:58:03.437Z,45.42
2023-06-18T03:00:32.558Z,45.28
2023-06-18T03:03:00.623Z,45.23
2023-06-18T03:05:31.144Z,45.39
2023-06-18T03:07:59.390Z,45.28
2023-06-18T03:10:27.454Z,45.34
2023-06-18T03:12:56.995Z,45.10
2023-06-18T03:15:45.466Z,45.25
2023-06-18T03:18:14.805Z,45.34
2023-06-18T03:20:44.128Z,45.42
2023-06-18T03:23:12.318Z,45.41
2023-06-18T03:25:42.764Z,45.26
2023-06-18T03:28:15.334Z,45.12
2023-06-18T03:30:43.911Z,45.00
2023-06-18T03:33:12.290Z,45.17
2023-06-18T03:35:41.405Z,45.32
2023-06-18T03:38:09.617Z,45.09
2023-06-18T03:40:37.929Z,45.07
2023-06-18T03:43:06.294Z,45.36
2023-06-18T03:45:34.394Z,45.21
2023-06-18T03:48:03.116Z,45.08
2023-06-18T03:50:36.174Z,45.23
2023-06-18T03:53:05.512Z,45.33
2023-06-18T03:55:34.918Z,44.96
2023-06-18T03:58:03.076Z,45.20
2023-06-18T04:00:32.266Z,45.06
2023-06-18T04:03:00.753Z,45.07
2023-06-18T04:05:29.842Z,45.18
2023-06-18T04:07:58.337Z,45.21
2023-06-18T04:10:26.623Z,45.09
2023-06-18T04:12:55.037Z,45.13
2023-06-18T04:15:23.323Z,45.03
2023-06-18T04:17:52.392Z,45.18
2023-06-18T04:20:21.062Z,45.10
2023-06-18T04:22:51.296Z,44.97
2023-06-18T04:25:20.300Z,45.12
2023-06-18T04:27:50.484Z,44.97
2023-06-18T04:30:19.875Z,45.00
2023-06-18T04:32:48.390Z,45.06
2023-06-18T04:35:17.014Z,45.12
2023-06-18T04:37:45.442Z,45.11
2023-06-18T04:40:13.771Z,45.08
2023-06-18T04:42:42.892Z,45.09
2023-06-18T04:45:15.390Z,44.98
2023-06-18T04:47:43.511Z,45.02
2023-06-18T04:50:11.661Z,45.20
2023-06-18T04:52:44.059Z,45.28
2023-06-18T04:55:12.805Z,45.04
2023-06-18T04:57:41.694Z,45.05
2023-06-18T05:00:10.375Z,45.07
2023-06-18T05:02:39.836Z,45.24
2023-06-18T05:05:08.438Z,45.00
2023-06-18T05:07:37.170Z,44.96
2023-06-18T05:10:05.791Z,45.04
2023-06-18T05:12:34.636Z,44.96
2023-06-18T05:15:03.134Z,44.95
2023-06-18T05:17:31.546Z,44.96
2023-06-18T05:20:01.843Z,44.93
2023-06-18T05:22:29.846Z,45.00
2023-06-18T05:25:00.925Z,45.18
2023-06-18T05:27:31.929Z,44.94
2023-06-18T05:30:01.016Z,45.10
2023-06-18T05:32:29.670Z,45.01
2023-06-18T05:34:58.385Z,44.85
2023-06-18T05:37:26.598Z,45.00
2023-06-18T05:39:54.649Z,44.92
2023-06-18T05:42:24.140Z,45.06
2023-06-18T05:44:53.246Z,45.16
2023-06-18T05:47:21.362Z,45.06
2023-06-18T05:49:50.105Z,44.82
2023-06-18T05:52:18.346Z,45.00
2023-06-18T05:54:46.889Z,44.99
2023-06-18T05:57:17.135Z,45.04
2023-06-18T05:59:48.548Z,44.92
2023-06-18T06:02:17.442Z,45.00
2023-06-18T06:04:46.985Z,45.06
2023-06-18T06:07:15.542Z,44.85
2023-06-18T06:09:44.324Z,44.89
2023-06-18T06:12:13.690Z,44.87
2023-06-18T06:14:42.416Z,44.89
2023-06-18T06:17:11.022Z,44.81
2023-06-18T06:19:40.117Z,44.96
2023-06-18T06:22:09.227Z,44.85
2023-06-18T06:24:37.584Z,44.79
2023-06-18T06:27:05.995Z,44.81
2023-06-18T06:29:35.692Z,44.71
2023-06-18T06:32:04.051Z,44.70
2023-06-18T06:34:32.250Z,44.84
2023-06-18T06:37:00.389Z,44.82
2023-06-18T06:39:28.654Z,44.79
2023-06-18T06:41:56.841Z,44.80
2023-06-18T06:44:30.537Z,44.80
2023-06-18T06:47:18.395Z,44.57
2023-06-18T06:50:09.467Z,44.61
2023-06-18T06:53:13.391Z,44.88
2023-06-18T06:55:41.673Z,44.82
2023-06-18T06:58:12.152Z,44.55
2023-06-18T07:00:40.369Z,44.47
2023-06-18T07:03:09.941Z,44.60
2023-06-18T07:05:38.254Z,44.53
2023-06-18T07:08:09.393Z,44.37
2023-06-18T07:10:37.548Z,44.57
2023-06-18T07:13:05.799Z,44.43
2023-06-18T07:15:33.843Z,44.25
2023-06-18T07:18:01.893Z,44.49
2023-06-18T07:20:30.895Z,44.35
2023-06-18T07:22:59.056Z,44.46
2023-06-18T07:25:27.086Z,44.09
2023-06-18T07:27:55.485Z,44.09
2023-06-18T07:30:24.708Z,43.97
2023-06-18T07:32:52.890Z,44.01
2023-06-18T07:35:20.980Z,44.00
2023-06-18T07:37:49.105Z,44.09
2023-06-18T07:40:17.245Z,44.01
2023-06-18T07:42:45.447Z,44.04
2023-06-18T07:45:13.938Z,43.77
2023-06-18T07:47:42.092Z,43.84
2023-06-18T07:50:10.709Z,43.92
2023-06-18T07:52:38.766Z,43.82
2023-06-18T07:55:07.577Z,43.78
2023-06-18T07:57:35.688Z,43.78
2023-06-18T08:00:04.611Z,43.57
2023-06-18T08:02:40.352Z,43.47
2023-06-18T08:05:08.643Z,43.54
2023-06-18T08:07:37.773Z,43.64
2023-06-18T08:10:06.512Z,43.65
2023-06-18T08:12:34.758Z,43.65
2023-06-18T08:15:02.901Z,43.64
2023-06-18T08:17:30.937Z,43.67
2023-06-18T08:19:59.392Z,43.50
2023-06-18T08:22:27.728Z,43.65
2023-06-18T08:24:55.868Z,43.56
2023-06-18T08:27:24.105Z,43.48
2023-06-18T08:29:52.121Z,43.52
2023-06-18T08:32:20.178Z,43.51
2023-06-18T08:34:48.278Z,43.42
2023-06-18T08:37:16.432Z,43.38
2023-06-18T08:39:44.429Z,43.37
2023-06-18T08:42:18.931Z,43.26
2023-06-18T08:44:47.805Z,43.51
2023-06-18T08:47:16.246Z,43.46
2023-06-18T08:49:45.579Z,43.39
2023-06-18T08:52:14.123Z,43.56
2023-06-18T08:54:42.174Z,43.53
2023-06-18T08:57:28.995Z,43.54
2023-06-18T09:00:00.691Z,43.63
2023-06-18T09:02:29.489Z,43.47
2023-06-18T09:04:57.764Z,43.55
2023-06-18T09:07:26.233Z,43.61
2023-06-18T09:09:54.279Z,43.61
2023-06-18T09:12:22.908Z,43.71
2023-06-18T09:14:51.283Z,43.64
2023-06-18T09:17:19.398Z,43.56
2023-06-18T09:19:47.952Z,43.65
2023-06-18T09:22:17.948Z,43.69
2023-06-18T09:25:00.961Z,43.62
2023-06-18T09:27:33.575Z,43.71
2023-06-18T09:30:02.333Z,43.86
2023-06-18T09:32:30.610Z,43.80
2023-06-18T09:34:59.047Z,43.84
2023-06-18T09:37:27.519Z,43.90
2023-06-18T09:39:57.633Z,43.88
2023-06-18T09:42:30.298Z,43.86
2023-06-18T09:44:58.885Z,44.07
2023-06-18T09:47:27.417Z,43.69
2023-06-18T09:49:56.143Z,43.91
2023-06-18T09:52:28.057Z,43.85
2023-06-18T09:54:56.935Z,43.90
2023-06-18T09:57:26.359Z,43.88
2023-06-18T10:00:13.440Z,44.08
2023-06-18T10:02:41.532Z,44.01
2023-06-18T10:05:09.727Z,43.78
2023-06-18T10:07:40.930Z,43.98
2023-06-18T10:10:16.222Z,43.96
2023-06-18T10:12:45.471Z,43.97
2023-06-18T10:15:14.173Z,43.90
2023-06-18T10:17:50.171Z,43.89
2023-06-18T10:20:18.371Z,43.91
2023-06-18T10:22:47.868Z,43.97
2023-06-18T10:25:16.305Z,43.80
2023-06-18T10:27:44.304Z,43.81
2023-06-18T10:30:13.021Z,44.01
2023-06-18T10:32:42.477Z,43.97
2023-06-18T10:35:11.005Z,43.82
2023-06-18T10:37:39.866Z,43.77
2023-06-18T10:40:08.659Z,43.78
2023-06-18T10:42:36.889Z,43.92
2023-06-18T10:45:15.219Z,43.87
2023-06-18T10:47:44.136Z,43.77
2023-06-18T10:50:18.566Z,43.71
2023-06-18T10:52:51.204Z,43.67
2023-06-18T10:55:19.469Z,43.46
2023-06-18T10:57:52.234Z,43.61
2023-06-18T11:00:30.378Z,43.56
2023-06-18T11:03:04.984Z,43.50
2023-06-18T11:05:33.522Z,43.48
2023-06-18T11:08:05.585Z,43.50
2023-06-18T11:10:40.987Z,43.33
2023-06-18T11:13:28.594Z,43.33
2023-06-18T11:16:12.152Z,43.21
2023-06-18T11:18:43.648Z,43.25
2023-06-18T11:21:21.434Z,43.41
2023-06-18T11:23:49.696Z,43.17
2023-06-18T11:26:18.699Z,43.02
2023-06-18T11:28:47.548Z,43.05
2023-06-18T11:31:15.923Z,43.23
2023-06-18T11:33:49.963Z,43.16
2023-06-18T11:36:20.144Z,43.26
2023-06-18T11:38:49.256Z,42.88
2023-06-18T11:41:21.736Z,43.16
2023-06-18T11:43:51.454Z,43.02
2023-06-18T11:46:35.854Z,43.09
2023-06-18T11:49:04.112Z,43.11
2023-06-18T11:51:33.048Z,43.06
2023-06-18T11:54:01.760Z,42.95
2023-06-18T11:56:30.700Z,43.01
2023-06-18T11:58:59.437Z,42.91
2023-06-18T12:01:31.876Z,42.84
2023-06-18T12:04:07.163Z,42.94
2023-06-18T12:06:36.491Z,42.97
2023-06-18T12:09:09.222Z,42.98
2023-06-18T12:12:02.452Z,43.10
2023-06-18T12:14:34.560Z,43.06
2023-06-18T12:17:08.005Z,43.25
2023-06-18T12:19:36.101Z,43.22
2023-06-18T12:22:04.583Z,43.14
2023-06-18T12:24:33.713Z,43.36
2023-06-18T12:27:02.499Z,43.32
2023-06-18T12:29:30.979Z,43.39
2023-06-18T12:32:03.543Z,43.42
2023-06-18T12:34:36.105Z,43.46
2023-06-18T12:37:04.729Z,43.59
2023-06-18T12:39:32.878Z,43.50
2023-06-18T12:42:01.206Z,43.50
2023-06-18T12:44:29.411Z,43.52
2023-06-18T12:47:00.714Z,43.49
2023-06-18T12:49:28.824Z,43.69
2023-06-18T12:51:56.883Z,43.40
2023-06-18T12:54:25.026Z,43.61
2023-06-18T12:56:55.343Z,43.71
2023-06-18T12:59:24.537Z,43.68
2023-06-18T13:01:52.774Z,43.77
2023-06-18T13:04:24.657Z,43.83
2023-06-18T13:06:54.229Z,43.84
2023-06-18T13:09:23.149Z,43.78
2023-06-18T13:11:51.527Z,43.77
2023-06-18T13:14:30.448Z,44.02
2023-06-18T13:17:02.936Z,44.08
2023-06-18T13:19:37.925Z,44.13
2023-06-18T13:22:09.840Z,44.14
2023-06-18T13:24:38.084Z,44.13
2023-06-18T13:27:06.624Z,44.20
2023-06-18T13:29:34.669Z,43.98
2023-06-18T13:32:04.436Z,44.18
2023-06-18T13:34:35.012Z,44.15
2023-06-18T13:37:03.239Z,44.16
2023-06-18T13:39:31.675Z,44.00
2023-06-18T13:42:00.567Z,44.18
2023-06-18T13:44:28.656Z,44.27
2023-06-18T13:46:56.712Z,44.14
2023-06-18T13:49:24.779Z,44.22
2023-06-18T13:51:52.880Z,44.16
2023-06-18T13:54:22.089Z,44.39
2023-06-18T13:56:50.503Z,44.17
2023-06-18T13:59:18.557Z,44.22
2023-06-18T14:01:46.896Z,44.07
2023-06-18T14:04:15.140Z,44.27
2023-06-18T14:06:43.560Z,44.06
2023-06-18T14:09:11.661Z,44.12
2023-06-18T14:11:40.123Z,44.10
2023-06-18T14:14:08.309Z,44.10
2023-06-18T14:16:36.547Z,44.07
2023-06-18T14:19:05.203Z,43.94
2023-06-18T14:21:33.404Z,43.99
2023-06-18T14:24:03.669Z,44.05
2023-06-18T14:26:32.565Z,44.03
2023-06-18T14:29:03.752Z,44.01
2023-06-18T14:31:32.072Z,44.05
2023-06-18T14:34:08.900Z,43.95
2023-06-18T14:36:39.864Z,43.78
2023-06-18T14:39:09.006Z,43.89
2023-06-18T14:41:37.557Z,43.80
2023-06-18T14:44:05.776Z,43.67
2023-06-18T14:46:33.948Z,43.77
2023-06-18T14:49:02.033Z,43.65
2023-06-18T14:51:30.049Z,43.63
2023-06-18T14:54:04.968Z,43.94
2023-06-18T14:56:34.293Z,43.88
2023-06-18T14:59:02.486Z,43.80
2023-06-18T15:01:30.494Z,43.99
2023-06-18T15:03:58.943Z,44.02
2023-06-18T15:06:27.149Z,43.88
2023-06-18T15:08:55.205Z,44.07
2023-06-18T15:11:23.268Z,43.87
2023-06-18T15:13:51.345Z,43.73
2023-06-18T15:16:19.466Z,43.84
2023-06-18T15:18:47.579Z,43.79
2023-06-18T15:21:15.574Z,43.86
2023-06-18T15:23:43.709Z,43.90
2023-06-18T15:26:15.886Z,43.95
2023-06-18T15:28:46.137Z,43.88
2023-06-18T15:31:14.799Z,44.03
2023-06-18T15:33:43.036Z,44.11
2023-06-18T15:36:11.298Z,44.00
2023-06-18T15:38:39.305Z,44.27
2023-06-18T15:41:07.750Z,44.13
2023-06-18T15:43:36.051Z,44.23
2023-06-18T15:46:04.441Z,44.17
2023-06-18T15:48:32.603Z,44.33
2023-06-18T15:51:00.971Z,44.24
2023-06-18T15:53:29.071Z,44.36
2023-06-18T15:55:58.235Z,44.30
2023-06-18T15:58:26.252Z,44.40
2023-06-18T16:00:54.492Z,44.40
2023-06-18T16:03:22.495Z,44.25
2023-06-18T16:05:50.699Z,44.42
2023-06-18T16:08:18.838Z,44.33
2023-06-18T16:10:47.077Z,44.29
2023-06-18T16:13:15.141Z,44.18
2023-06-18T16:15:43.137Z,44.50
2023-06-18T16:18:11.360Z,44.35
2023-06-18T16:20:39.434Z,44.38
2023-06-18T16:23:07.863Z,44.26
2023-06-18T16:25:36.065Z,44.24
2023-06-18T16:28:05.809Z,44.32
2023-06-18T16:30:33.832Z,44.29
2023-06-18T16:33:02.061Z,44.45
2023-06-18T16:35:30.363Z,44.46
2023-06-18T16:37:58.439Z,44.46
2023-06-18T16:40:27.290Z,44.44
2023-06-18T16:42:55.444Z,44.53
2023-06-18T16:45:23.799Z,44.45
2023-06-18T16:47:52.906Z,44.67
2023-06-18T16:50:21.140Z,44.62
2023-06-18T16:52:49.279Z,44.64
2023-06-18T16:55:19.431Z,44.60
2023-06-18T16:57:47.727Z,44.53
2023-06-18T17:00:16.303Z,44.71
2023-06-18T17:02:44.845Z,44.52
2023-06-18T17:05:13.726Z,44.64
2023-06-18T17:07:41.865Z,44.78
2023-06-18T17:10:10.462Z,44.73
2023-06-18T17:12:39.045Z,44.72
2023-06-18T17:15:09.367Z,44.88
2023-06-18T17:17:37.682Z,44.89
2023-06-18T17:20:07.335Z,44.93
2023-06-18T17:22:35.670Z,44.86
2023-06-18T17:25:04.025Z,44.92
2023-06-18T17:27:32.034Z,44.76
2023-06-18T17:30:00.048Z,44.89
2023-06-18T17:32:28.397Z,44.87
2023-06-18T17:34:56.417Z,44.83
2023-06-18T17:37:24.976Z,44.85
2023-06-18T17:39:53.251Z,44.99
2023-06-18T17:42:21.377Z,45.08
2023-06-18T17:44:49.780Z,45.02
2023-06-18T17:47:18.047Z,45.02
2023-06-18T17:50:06.197Z,44.92
2023-06-18T17:52:34.286Z,44.84
2023-06-18T17:55:02.432Z,45.07
2023-06-18T17:57:30.415Z,45.02
2023-06-18T17:59:58.418Z,45.00
2023-06-18T18:02:26.600Z,44.95
2023-06-18T18:04:54.775Z,44.84
2023-06-18T18:07:24.066Z,44.83
2023-06-18T18:09:52.067Z,44.95
2023-06-18T18:12:20.169Z,44.86
2023-06-18T18:14:48.398Z,45.01
2023-06-18T18:17:16.734Z,45.04
2023-06-18T18:19:45.053Z,44.97
2023-06-18T18:22:13.291Z,45.03
2023-06-18T18:24:41.443Z,45.06
2023-06-18T18:27:10.709Z,45.00
2023-06-18T18:29:38.827Z,45.06
2023-06-18T18:32:07.341Z,45.21
2023-06-18T18:34:35.457Z,45.06
2023-06-18T18:37:04.740Z,45.24
2023-06-18T18:39:32.951Z,45.08
2023-06-18T18:42:01.016Z,45.28
2023-06-18T18:44:29.117Z,45.09
2023-06-18T18:46:57.271Z,45.30
2023-06-18T18:49:28.016Z,45.22
2023-06-18T18:51:56.369Z,45.35
2023-06-18T18:54:24.400Z,45.18
2023-06-18T18:56:54.798Z,45.28
2023-06-18T18:59:23.240Z,45.00
2023-06-18T19:01:51.381Z,45.25
2023-06-18T19:04:19.569Z,45.02
2023-06-18T19:06:47.578Z,45.14
2023-06-18T19:09:15.798Z,45.18
2023-06-18T19:11:44.447Z,45.24
2023-06-18T19:14:12.536Z,45.20
2023-06-18T19:16:40.641Z,45.03
2023-06-18T19:19:08.975Z,45.21
2023-06-18T19:21:37.286Z,45.04
2023-06-18T19:24:05.809Z,45.09
2023-06-18T19:26:33.840Z,45.07
2023-06-18T19:29:03.721Z,45.26
2023-06-18T19:31:31.893Z,45.23
2023-06-18T19:34:00.767Z,45.14
2023-06-18T19:36:28.881Z,45.09
2023-06-18T19:38:57.226Z,45.07
2023-06-18T19:41:25.217Z,45.13
2023-06-18T19:43:53.697Z,45.20
2023-06-18T19:46:22.036Z,45.07
2023-06-18T19:48:50.271Z,45.14
2023-06-18T19:51:18.551Z,45.02
2023-06-18T19:53:46.969Z,45.00
2023-06-18T19:56:15.303Z,45.13
2023-06-18T19:58:43.372Z,45.05
2023-06-18T20:01:11.543Z,45.11
2023-06-18T20:03:39.927Z,45.29
2023-06-18T20:06:08.130Z,45.11
2023-06-18T20:08:36.236Z,45.36
2023-06-18T20:11:04.448Z,44.93
2023-06-18T20:13:32.576Z,45.18
2023-06-18T20:16:00.961Z,44.87
2023-06-18T20:18:29.457Z,44.99
2023-06-18T20:20:58.651Z,45.05
2023-06-18T20:23:26.775Z,45.22
2023-06-18T20:25:55.839Z,44.98
2023-06-18T20:28:23.932Z,45.06
2023-06-18T20:30:52.055Z,45.13
2023-06-18T20:33:20.259Z,45.01
2023-06-18T20:35:48.329Z,45.07
2023-06-18T20:38:18.289Z,45.08
2023-06-18T20:40:46.319Z,45.03
2023-06-18T20:43:14.761Z,45.15
2023-06-18T20:45:42.980Z,44.93
2023-06-18T20:48:13.181Z,45.04
2023-06-18T20:50:41.562Z,45.01
2023-06-18T20:53:09.845Z,45.08
2023-06-18T20:55:38.107Z,44.92
2023-06-18T20:58:06.209Z,44.94
2023-06-18T21:00:34.263Z,45.02
2023-06-18T21:03:02.422Z,44.92
2023-06-18T21:05:30.900Z,45.06
2023-06-18T21:07:59.155Z,45.18
2023-06-18T21:10:27.636Z,45.07
2023-06-18T21:12:55.977Z,44.93
2023-06-18T21:15:24.059Z,45.09
2023-06-18T21:17:52.249Z,45.02
2023-06-18T21:20:21.905Z,45.02
2023-06-18T21:22:53.281Z,45.01
2023-06-18T21:25:22.091Z,44.75
2023-06-18T21:27:50.214Z,44.96
2023-06-18T21:30:18.208Z,44.94
2023-06-18T21:32:46.597Z,44.96
2023-06-18T21:35:15.169Z,44.80
2023-06-18T21:37:45.384Z,44.87
2023-06-18T21:40:14.887Z,44.84
2023-06-18T21:42:43.708Z,44.78
2023-06-18T21:45:13.335Z,44.59
2023-06-18T21:47:41.697Z,44.89
2023-06-18T21:50:10.410Z,44.84
2023-06-18T21:52:38.594Z,44.89
2023-06-18T21:55:09.412Z,44.80
2023-06-18T21:57:38.076Z,44.65
2023-06-18T22:00:09.123Z,44.82
2023-06-18T22:02:40.276Z,44.95
2023-06-18T22:05:08.738Z,44.79
2023-06-18T22:07:36.822Z,44.81
2023-06-18T22:10:05.184Z,44.76
2023-06-18T22:12:33.350Z,44.69
2023-06-18T22:15:01.563Z,44.79
2023-06-18T22:17:30.068Z,44.83
2023-06-18T22:19:58.120Z,44.71
2023-06-18T22:22:26.144Z,44.60
2023-06-18T22:24:54.482Z,44.62
2023-06-18T22:27:22.655Z,44.74
2023-06-18T22:29:52.218Z,44.62
2023-06-18T22:32:21.841Z,44.66
2023-06-18T22:34:49.902Z,44.61
2023-06-18T22:37:18.161Z,44.80
2023-06-18T22:39:46.697Z,44.73
2023-06-18T22:42:15.171Z,44.73
2023-06-18T22:44:43.636Z,44.69
2023-06-18T22:47:11.759Z,44.75
2023-06-18T22:49:39.847Z,44.52
2023-06-18T22:52:08.428Z,44.68
2023-06-18T22:54:36.516Z,44.59
2023-06-18T22:57:04.949Z,44.57
2023-06-18T22:59:32.977Z,44.51
2023-06-18T23:02:01.003Z,44.56
2023-06-18T23:04:29.193Z,44.58
2023-06-18T23:06:57.236Z,44.58
2023-06-18T23:09:25.253Z,44.57
2023-06-18T23:11:53.735Z,44.55
2023-06-18T23:14:22.206Z,44.47
2023-06-18T23:16:50.429Z,44.58
2023-06-18T23:19:18.892Z,44.64
2023-06-18T23:21:48.538Z,44.70
2023-06-18T23:24:17.251Z,44.69
2023-06-18T23:26:45.392Z,44.48
2023-06-18T23:29:13.585Z,44.54
2023-06-18T23:31:41.878Z,44.51
2023-06-18T23:34:10.277Z,44.52
2023-06-18T23:36:38.690Z,44.48
2023-06-18T23:39:07.729Z,44.42
2023-06-18T23:41:35.846Z,44.36
2023-06-18T23:44:04.420Z,44.39
2023-06-18T23:46:32.782Z,44.46
2023-06-18T23:49:00.980Z,44.49
2023-06-18T23:51:29.085Z,44.64
2023-06-18T23:53:57.135Z,44.25
2023-06-18T23:56:25.187Z,44.51
2023-06-18T23:58:53.719Z,44.44
